Terminal Aerodrome Forecast
Issued by NWS

Home | Current Version | Previous Version | Text Only | Print | Product List | Glossary On
Versions: 1 2 3 4 5 6 7 8 9 10 11 12 13 14 15 16 17 18 19 20 21 22 23 24
083
FTUS46 KLOX 122032 AAA
TAFLAX
TAF AMD
KLAX 122032Z 1221/1324 26010KT P6SM BKN250
     FM130600 VRB03KT P6SM BKN250
     FM131200 VRB03KT 5SM BR BKN250
     FM131700 VRB03KT 6SM HZ SCT250
     FM132000 27007KT P6SM SCT250=

USA.gov is the U.S. government's official web portal to all federal, state and local government web resources and services.